Time;durP1;ratioP1;P1;durP2;ratioP2;P2;SDS_P1;SDS_P2;PMS_P1;PMS_P2;Temp;Humidity;BMP_temperature;BMP_pressure;BME280_temperature;BME280_humidity;BME280_pressure;Samples;Min_cycle;Max_cycle;Signal;HPM_P1;HPM_P2
2023/07/05 00:01:22;;;;;;;;;10.75;7.25;;;;;16.37;69.97;100478.44;5078501;28;66445;-75
2023/07/05 00:03:47;;;;;;;;;8.50;8.50;;;;;16.35;69.29;100479.47;5060760;28;45433;-75
2023/07/05 00:06:12;;;;;;;;;10.25;7.25;;;;;16.31;69.41;100484.06;5076707;28;45382;-75
2023/07/05 00:08:40;;;;;;;;;9.75;7.50;;;;;16.28;69.36;100487.72;5074649;27;51049;-75
2023/07/05 00:11:07;;;;;;;;;12.50;7.75;;;;;16.24;69.70;100490.63;5075601;28;46842;-75
2023/07/05 00:13:32;;;;;;;;;12.25;6.50;;;;;16.24;69.88;100502.03;5076479;27;46162;-75
2023/07/05 00:15:59;;;;;;;;;8.75;6.75;;;;;16.23;70.33;100499.47;5059898;28;45475;-75
2023/07/05 00:18:24;;;;;;;;;10.25;8.75;;;;;16.24;70.44;100503.81;5074093;27;45807;-75
2023/07/05 00:20:50;;;;;;;;;13.50;8.75;;;;;16.23;69.42;100502.94;5078607;27;45458;-75
2023/07/05 00:23:15;;;;;;;;;9.75;8.00;;;;;16.22;69.88;100511.81;5073570;27;53785;-75
2023/07/05 00:25:40;;;;;;;;;12.50;9.00;;;;;16.20;69.80;100510.19;5069949;28;55280;-75
2023/07/05 00:28:06;;;;;;;;;12.00;9.50;;;;;16.17;69.32;100505.94;5074606;28;50468;-75
2023/07/05 00:30:31;;;;;;;;;13.25;9.00;;;;;16.13;69.42;100512.34;5077895;28;45289;-75
2023/07/05 00:32:56;;;;;;;;;11.00;7.25;;;;;16.10;69.57;100515.97;5075162;28;69046;-75
2023/07/05 00:35:22;;;;;;;;;11.00;7.75;;;;;16.05;69.30;100509.25;5056844;28;64864;-75
2023/07/05 00:37:47;;;;;;;;;9.50;8.75;;;;;16.02;68.42;100517.31;5070642;27;57872;-75
2023/07/05 00:40:13;;;;;;;;;9.75;6.00;;;;;15.98;68.72;100515.78;5076148;28;64853;-75
2023/07/05 00:42:38;;;;;;;;;11.50;8.50;;;;;15.94;68.55;100521.22;5072631;28;45455;-75
2023/07/05 00:45:10;;;;;;;;;10.00;8.25;;;;;15.93;68.64;100534.47;5068813;28;45391;-76
2023/07/05 00:47:37;;;;;;;;;13.75;10.00;;;;;15.88;68.47;100531.22;5075741;27;45533;-74
2023/07/05 00:50:13;;;;;;;;;6.00;5.00;;;;;15.85;68.37;100526.13;5063750;27;45417;-74
2023/07/05 00:52:39;;;;;;;;;9.00;8.25;;;;;15.83;67.57;100527.97;5061295;28;45946;-74
2023/07/05 00:55:05;;;;;;;;;11.75;9.00;;;;;15.81;67.95;100533.38;5069610;27;46185;-76
2023/07/05 00:57:33;;;;;;;;;11.00;7.50;;;;;15.77;67.51;100523.03;5059071;28;45589;-76
2023/07/05 01:00:03;;;;;;;;;8.50;6.75;;;;;15.85;67.91;100552.53;5067807;28;45345;-74
2023/07/05 01:02:30;;;;;;;;;13.75;7.75;;;;;15.85;67.79;100542.81;5057267;28;45420;-74
2023/07/05 01:04:56;;;;;;;;;10.50;7.00;;;;;15.90;67.70;100558.38;5066715;28;45427;-74
2023/07/05 01:07:21;;;;;;;;;12.00;7.00;;;;;15.89;66.85;100554.91;5059334;28;46003;-75
2023/07/05 01:09:47;;;;;;;;;7.50;7.25;;;;;15.88;66.04;100558.50;5072386;27;45446;-75
2023/07/05 01:12:23;;;;;;;;;9.25;6.25;;;;;15.88;67.08;100568.19;5076246;28;45396;-74
2023/07/05 01:14:54;;;;;;;;;11.25;7.50;;;;;15.85;66.98;100576.28;5075978;27;45501;-74
2023/07/05 01:17:40;;;;;;;;;9.25;5.00;;;;;15.83;66.77;100581.63;5074984;27;45468;-74
2023/07/05 01:20:17;;;;;;;;;7.50;6.25;;;;;15.79;65.84;100579.22;5072208;28;45567;-74
2023/07/05 01:22:46;;;;;;;;;10.50;7.00;;;;;15.74;66.51;100575.03;5073571;27;45834;-74
2023/07/05 01:25:39;;;;;;;;;6.50;6.50;;;;;15.70;65.68;100569.94;5077717;27;45205;-74
2023/07/05 01:28:20;;;;;;;;;7.00;5.75;;;;;15.65;66.05;100557.00;5067579;28;45517;-74
2023/07/05 01:31:40;;;;;;;;;10.50;8.50;;;;;15.61;65.78;100568.63;5078375;28;45533;-75
2023/07/05 01:34:20;;;;;;;;;10.00;6.50;;;;;15.55;65.52;100553.97;5048035;27;45330;-75
2023/07/05 01:36:45;;;;;;;;;7.75;5.00;;;;;15.56;66.08;100563.59;5091328;27;45338;-77
2023/07/05 01:39:11;;;;;;;;;10.50;7.50;;;;;15.55;66.39;100566.31;5069805;28;73132;-76
2023/07/05 01:41:37;;;;;;;;;9.25;6.00;;;;;15.53;65.71;100573.47;5065200;27;46138;-77
2023/07/05 01:44:02;;;;;;;;;7.50;4.00;;;;;15.54;66.06;100583.91;5068997;28;71041;-76
2023/07/05 01:46:52;;;;;;;;;6.00;6.00;;;;;15.59;66.15;100586.31;5075665;28;45460;-76
2023/07/05 01:49:29;;;;;;;;;5.75;5.50;;;;;15.66;66.09;100597.44;5074664;27;45581;-75
2023/07/05 01:52:04;;;;;;;;;7.50;5.50;;;;;15.70;65.64;100597.19;5066157;27;46430;-76
2023/07/05 01:54:37;;;;;;;;;9.50;5.25;;;;;15.74;64.94;100600.50;5071816;27;45356;-75
2023/07/05 01:57:11;;;;;;;;;5.75;3.75;;;;;15.78;64.43;100614.47;5070016;28;45342;-76
2023/07/05 02:00:09;;;;;;;;;5.00;4.00;;;;;15.81;65.04;100615.16;5068255;28;45351;-76
2023/07/05 02:02:39;;;;;;;;;11.00;4.00;;;;;15.82;64.11;100616.00;5065742;28;46109;-77
2023/07/05 02:05:07;;;;;;;;;4.25;4.00;;;;;15.79;62.79;100618.78;5072343;28;45460;-76
2023/07/05 02:07:32;;;;;;;;;3.75;3.00;;;;;15.81;64.44;100611.66;5071207;28;45527;-77
2023/07/05 02:09:58;;;;;;;;;3.25;2.00;;;;;15.79;62.95;100621.44;5071983;28;45286;-75
2023/07/05 02:12:25;;;;;;;;;4.50;4.50;;;;;15.80;63.85;100615.25;5073129;28;47166;-75
2023/07/05 02:14:51;;;;;;;;;2.50;1.75;;;;;15.73;63.48;100619.94;5069039;28;45379;-75
2023/07/05 02:17:17;;;;;;;;;4.50;4.00;;;;;15.68;63.39;100632.50;5071643;28;45593;-76
2023/07/05 02:19:43;;;;;;;;;4.00;2.50;;;;;15.67;63.32;100628.13;5072004;27;45471;-76
2023/07/05 02:22:08;;;;;;;;;4.00;2.75;;;;;15.66;63.76;100640.47;5077067;27;46354;-76
2023/07/05 02:24:34;;;;;;;;;3.50;3.50;;;;;15.62;63.27;100638.09;5075221;27;64613;-75
2023/07/05 02:26:59;;;;;;;;;4.25;3.25;;;;;15.57;63.86;100633.88;5063205;28;68531;-76
2023/07/05 02:29:25;;;;;;;;;3.50;3.25;;;;;15.57;63.05;100640.94;5073239;28;45508;-75
2023/07/05 02:31:51;;;;;;;;;5.50;3.75;;;;;15.57;63.85;100641.78;5067505;28;46950;-75
2023/07/05 02:34:16;;;;;;;;;5.75;2.00;;;;;15.54;63.41;100639.28;5069320;28;68569;-74
2023/07/05 02:36:41;;;;;;;;;6.00;4.00;;;;;15.52;63.11;100630.59;5076264;27;45593;-76
2023/07/05 02:39:07;;;;;;;;;4.75;2.00;;;;;15.50;63.90;100648.28;5066813;28;71916;-76
2023/07/05 02:41:32;;;;;;;;;7.00;2.75;;;;;15.48;64.07;100639.63;5069662;28;60866;-75
2023/07/05 02:43:58;;;;;;;;;4.75;3.25;;;;;15.46;64.21;100649.38;5067261;27;66568;-75
2023/07/05 02:46:25;;;;;;;;;3.00;2.75;;;;;15.46;63.50;100651.19;5064513;28;45263;-76
2023/07/05 02:48:51;;;;;;;;;3.75;2.75;;;;;15.44;63.46;100655.66;5057925;28;45563;-77
2023/07/05 02:51:17;;;;;;;;;5.75;3.25;;;;;15.46;64.10;100664.38;5078281;28;45400;-76
2023/07/05 02:53:42;;;;;;;;;2.75;2.00;;;;;15.41;63.77;100656.66;5077377;27;58413;-75
2023/07/05 02:56:08;;;;;;;;;3.50;2.50;;;;;15.40;63.86;100673.41;5062118;28;45372;-76
2023/07/05 02:58:33;;;;;;;;;4.75;2.75;;;;;15.38;63.97;100673.47;5071622;27;65847;-76
2023/07/05 03:00:58;;;;;;;;;2.50;1.75;;;;;15.34;64.11;100666.66;5076227;27;57837;-75
2023/07/05 03:03:26;;;;;;;;;2.50;2.50;;;;;15.34;63.88;100678.97;5057154;28;45250;-75
2023/07/05 03:05:56;;;;;;;;;2.50;2.25;;;;;15.30;63.97;100662.47;5078453;27;45371;-76
2023/07/05 03:08:21;;;;;;;;;4.75;2.50;;;;;15.27;63.73;100672.28;5071887;28;45528;-76
2023/07/05 03:10:46;;;;;;;;;2.25;2.25;;;;;15.27;63.94;100677.56;5075344;27;48106;-76
2023/07/05 03:13:12;;;;;;;;;5.75;2.50;;;;;15.20;63.83;100663.81;5069959;27;59483;-76
2023/07/05 03:15:37;;;;;;;;;2.75;2.75;;;;;15.19;64.14;100672.63;5075440;28;46959;-75
2023/07/05 03:18:02;;;;;;;;;4.00;3.00;;;;;15.17;64.36;100678.00;5076171;27;67415;-76
2023/07/05 03:20:28;;;;;;;;;2.00;1.50;;;;;15.16;64.34;100686.84;5047026;28;46268;-76
2023/07/05 03:22:53;;;;;;;;;2.00;1.75;;;;;15.16;64.50;100675.44;5073402;27;45422;-76
2023/07/05 03:25:19;;;;;;;;;2.00;1.50;;;;;15.14;63.95;100686.06;5054633;28;45417;-75
2023/07/05 03:27:44;;;;;;;;;3.25;1.50;;;;;15.11;64.42;100694.09;5073227;27;63667;-76
2023/07/05 03:30:10;;;;;;;;;4.75;1.50;;;;;15.09;63.98;100701.22;5079202;27;77499;-77
2023/07/05 03:32:36;;;;;;;;;2.25;1.00;;;;;15.08;64.09;100710.03;5061834;28;45510;-77
2023/07/05 03:35:01;;;;;;;;;4.50;2.50;;;;;15.06;63.95;100711.06;5077992;27;45406;-76
2023/07/05 03:37:28;;;;;;;;;1.50;1.50;;;;;15.01;63.95;100703.34;5053238;28;45518;-76
2023/07/05 03:39:54;;;;;;;;;3.25;1.50;;;;;14.98;63.58;100714.91;5076589;27;46179;-76
2023/07/05 03:42:19;;;;;;;;;3.00;1.75;;;;;14.98;63.93;100714.91;5054665;28;61008;-76
2023/07/05 03:44:44;;;;;;;;;2.50;0.75;;;;;14.97;63.81;100717.59;5078206;27;45909;-75
2023/07/05 03:47:10;;;;;;;;;1.25;1.25;;;;;14.97;63.54;100731.63;5068378;28;50398;-76
2023/07/05 03:49:35;;;;;;;;;4.25;1.00;;;;;14.95;63.52;100724.72;5055888;28;66009;-75
2023/07/05 03:52:00;;;;;;;;;3.25;1.00;;;;;14.94;63.46;100723.88;5079619;27;45441;-75
2023/07/05 03:54:28;;;;;;;;;3.00;1.00;;;;;14.93;63.08;100731.84;5056601;28;45403;-76
2023/07/05 03:56:53;;;;;;;;;2.25;1.50;;;;;14.92;63.42;100728.34;5064292;28;45529;-75
2023/07/05 03:59:18;;;;;;;;;3.00;1.25;;;;;14.89;63.18;100725.88;5072691;27;47031;-75
2023/07/05 04:01:44;;;;;;;;;2.00;1.75;;;;;14.89;63.80;100733.78;5070295;28;51428;-74
2023/07/05 04:04:09;;;;;;;;;1.50;0.50;;;;;14.91;63.51;100729.28;5072264;27;45398;-75
2023/07/05 04:06:34;;;;;;;;;3.00;1.25;;;;;14.86;63.50;100733.06;5077971;28;52092;-74
2023/07/05 04:09:00;;;;;;;;;2.25;1.50;;;;;14.90;63.88;100734.63;5073679;27;46224;-74
2023/07/05 04:11:26;;;;;;;;;3.00;2.00;;;;;14.87;63.87;100742.66;5076445;27;45472;-74
2023/07/05 04:13:53;;;;;;;;;4.00;1.00;;;;;14.87;63.84;100740.88;5071906;28;45505;-75
2023/07/05 04:16:21;;;;;;;;;6.50;2.25;;;;;14.92;63.83;100748.56;5079449;28;45419;-75
2023/07/05 04:18:50;;;;;;;;;3.00;1.50;;;;;14.91;63.65;100749.47;5075710;28;48540;-75
2023/07/05 04:21:16;;;;;;;;;1.50;1.50;;;;;14.93;63.97;100751.16;5077687;28;45396;-75
2023/07/05 04:23:41;;;;;;;;;1.50;0.50;;;;;14.93;63.67;100758.19;5075572;27;45513;-74
2023/07/05 04:26:12;;;;;;;;;3.00;1.25;;;;;14.92;64.07;100764.38;5079662;27;46221;-74
2023/07/05 04:28:39;;;;;;;;;7.25;2.00;;;;;14.92;63.79;100761.75;5066651;27;45486;-75
2023/07/05 04:31:07;;;;;;;;;4.00;2.00;;;;;14.92;64.10;100773.13;5079861;27;45445;-74
2023/07/05 04:33:32;;;;;;;;;4.50;2.00;;;;;14.88;63.89;100776.84;5065822;27;46265;-74
2023/07/05 04:35:59;;;;;;;;;3.50;2.50;;;;;14.89;64.02;100778.56;5071509;27;64811;-73
2023/07/05 04:38:25;;;;;;;;;2.50;2.25;;;;;14.88;64.35;100781.25;5075528;27;47293;-73
2023/07/05 04:40:51;;;;;;;;;5.75;3.25;;;;;14.89;64.45;100783.84;5080818;28;45399;-73
2023/07/05 04:43:17;;;;;;;;;6.25;2.50;;;;;14.86;64.47;100775.22;5073122;27;45486;-74
2023/07/05 04:45:51;;;;;;;;;4.75;4.00;;;;;14.85;64.25;100779.59;5073664;27;45957;-73
2023/07/05 04:48:16;;;;;;;;;3.50;3.00;;;;;14.83;64.39;100784.09;5076763;28;47206;-74
2023/07/05 04:50:42;;;;;;;;;4.50;2.00;;;;;14.85;64.31;100773.50;5070023;27;45326;-74
2023/07/05 04:53:07;;;;;;;;;7.25;3.50;;;;;14.88;64.48;100784.75;5078966;27;45276;-74
2023/07/05 04:55:33;;;;;;;;;7.50;3.50;;;;;14.86;64.58;100776.06;5067735;27;73553;-74
2023/07/05 04:57:58;;;;;;;;;5.25;4.25;;;;;14.88;64.59;100784.75;5077006;27;68960;-74
2023/07/05 05:00:24;;;;;;;;;4.25;2.25;;;;;14.88;65.08;100787.38;5068950;28;54541;-74
2023/07/05 05:02:50;;;;;;;;;6.75;3.25;;;;;14.89;64.95;100802.28;5072622;28;45217;-75
2023/07/05 05:05:15;;;;;;;;;5.50;4.00;;;;;14.87;64.71;100785.66;5077108;28;45751;-74
2023/07/05 05:07:41;;;;;;;;;11.25;4.75;;;;;14.92;64.64;100799.47;5054761;28;48397;-73
2023/07/05 05:10:07;;;;;;;;;6.25;4.00;;;;;14.94;64.70;100802.06;5076516;27;45291;-73
2023/07/05 05:12:32;;;;;;;;;4.75;3.00;;;;;14.96;64.86;100806.34;5057525;28;45263;-74
2023/07/05 05:14:57;;;;;;;;;5.75;5.75;;;;;14.98;65.09;100803.66;5074317;27;45295;-74
2023/07/05 05:17:23;;;;;;;;;6.75;5.00;;;;;15.00;65.03;100800.00;5066367;27;47856;-75
2023/07/05 05:19:49;;;;;;;;;6.25;3.00;;;;;15.02;64.93;100797.31;5069322;28;45558;-74
2023/07/05 05:22:14;;;;;;;;;5.75;5.00;;;;;15.06;64.90;100795.41;5075055;27;61654;-74
2023/07/05 05:24:39;;;;;;;;;7.00;4.00;;;;;15.06;65.06;100801.50;5061058;28;45530;-74
2023/07/05 05:27:05;;;;;;;;;9.50;5.00;;;;;15.07;65.46;100797.97;5077336;28;45366;-77
2023/07/05 05:29:30;;;;;;;;;5.25;4.25;;;;;15.08;64.86;100802.28;5053681;28;45412;-75
2023/07/05 05:31:57;;;;;;;;;7.75;4.00;;;;;15.13;65.08;100796.81;5059064;28;45449;-79
2023/07/05 05:34:26;;;;;;;;;6.75;3.75;;;;;15.13;64.82;100802.09;5061038;28;45398;-76
2023/07/05 05:36:51;;;;;;;;;5.25;3.75;;;;;15.20;64.67;100798.25;5065754;28;45593;-73
2023/07/05 05:39:16;;;;;;;;;5.25;4.00;;;;;15.32;64.97;100802.97;5075802;27;45229;-73
2023/07/05 05:41:42;;;;;;;;;9.75;3.50;;;;;15.43;64.66;100809.56;5069229;28;66271;-73
2023/07/05 05:44:07;;;;;;;;;6.00;5.25;;;;;15.47;64.40;100809.31;5074325;28;45485;-74
2023/07/05 05:46:33;;;;;;;;;12.00;4.25;;;;;15.60;64.00;100809.63;5068795;28;72778;-71
2023/07/05 05:48:59;;;;;;;;;4.75;4.75;;;;;15.66;64.18;100808.47;5069615;27;45571;-72
2023/07/05 05:51:24;;;;;;;;;6.50;4.00;;;;;15.68;64.07;100804.81;5070464;28;45481;-72
2023/07/05 05:53:50;;;;;;;;;9.25;5.25;;;;;15.71;63.72;100812.59;5056707;27;45351;-71
2023/07/05 05:56:15;;;;;;;;;5.75;3.75;;;;;15.73;63.61;100802.81;5074512;28;69747;-70
2023/07/05 05:58:41;;;;;;;;;5.50;3.25;;;;;15.74;63.56;100812.50;5054981;28;45352;-70
2023/07/05 06:01:06;;;;;;;;;6.25;5.25;;;;;15.83;63.58;100821.75;5070784;28;66999;-70
2023/07/05 06:03:32;;;;;;;;;5.00;3.00;;;;;15.89;63.64;100823.25;5054354;28;45460;-71
2023/07/05 06:05:57;;;;;;;;;6.25;3.75;;;;;15.92;63.78;100829.22;5070589;28;75422;-70
2023/07/05 06:08:22;;;;;;;;;5.00;3.00;;;;;15.97;63.92;100829.03;5075912;27;45435;-69
2023/07/05 06:10:55;;;;;;;;;3.00;3.00;;;;;16.01;62.63;100827.09;5067960;28;45576;-71
2023/07/05 06:13:21;;;;;;;;;6.25;3.50;;;;;16.05;62.91;100834.78;5064283;27;45755;-69
2023/07/05 06:15:55;;;;;;;;;3.50;3.25;;;;;16.10;63.06;100843.31;5054595;28;62794;-72
2023/07/05 06:18:21;;;;;;;;;3.50;3.00;;;;;16.18;63.26;100836.81;5068353;28;45346;-72
2023/07/05 06:20:46;;;;;;;;;5.25;4.50;;;;;16.29;62.69;100845.94;5075047;28;45810;-70
2023/07/05 06:23:11;;;;;;;;;5.25;4.00;;;;;16.37;63.07;100842.06;5054911;28;66505;-71
2023/07/05 06:25:37;;;;;;;;;5.00;4.75;;;;;16.43;62.84;100841.75;5078523;27;69832;-73
2023/07/05 06:28:03;;;;;;;;;10.25;3.75;;;;;16.49;62.97;100831.72;5074856;27;48109;-73
2023/07/05 06:30:28;;;;;;;;;6.25;2.75;;;;;16.59;62.06;100847.09;5064570;28;45455;-72
2023/07/05 06:32:55;;;;;;;;;5.25;3.50;;;;;16.70;61.98;100852.72;5061960;27;45496;-73
2023/07/05 06:35:20;;;;;;;;;4.00;2.75;;;;;16.73;62.43;100841.97;5078349;27;46431;-72
2023/07/05 06:37:45;;;;;;;;;4.50;4.00;;;;;16.75;61.76;100850.72;5079093;27;45476;-73
2023/07/05 06:40:11;;;;;;;;;4.00;4.00;;;;;16.77;62.15;100850.59;5075070;27;45441;-73
2023/07/05 06:42:36;;;;;;;;;5.50;4.00;;;;;16.82;62.04;100851.22;5073676;27;45409;-73
2023/07/05 06:45:02;;;;;;;;;5.75;3.50;;;;;16.81;62.12;100854.81;5061029;28;72937;-72
2023/07/05 06:47:27;;;;;;;;;5.00;2.25;;;;;16.75;61.40;100858.63;5078210;27;45307;-73
2023/07/05 06:49:53;;;;;;;;;6.25;4.25;;;;;16.73;61.78;100849.06;5076763;28;65744;-72
2023/07/05 06:52:18;;;;;;;;;3.00;3.00;;;;;16.83;61.34;100860.88;5076162;27;48350;-70
2023/07/05 06:54:44;;;;;;;;;2.50;2.50;;;;;16.84;61.45;100862.63;5077969;27;46556;-86
2023/07/05 06:57:09;;;;;;;;;5.50;4.00;;;;;16.86;61.14;100866.91;5069376;28;45681;-87
2023/07/05 06:59:35;;;;;;;;;6.00;3.00;;;;;16.93;61.61;100871.84;5085441;28;45268;-82
2023/07/05 07:02:01;;;;;;;;;3.25;3.25;;;;;16.95;61.31;100880.59;5092949;27;45286;-87
2023/07/05 07:04:28;;;;;;;;;7.00;3.25;;;;;17.01;61.39;100883.75;5089753;27;47083;-87
2023/07/05 07:06:54;;;;;;;;;6.00;4.25;;;;;17.06;60.84;100889.66;5070682;28;45458;-82
2023/07/05 07:09:19;;;;;;;;;6.75;3.75;;;;;17.06;61.11;100897.59;5075235;27;66555;-70
2023/07/05 07:11:44;;;;;;;;;7.00;4.25;;;;;17.11;61.27;100896.50;5068118;27;62911;-75
2023/07/05 07:14:10;;;;;;;;;7.50;4.00;;;;;17.18;60.89;100892.63;5061762;28;63132;-76
2023/07/05 07:16:35;;;;;;;;;5.75;3.75;;;;;17.25;60.83;100904.59;5069506;28;45309;-73
2023/07/05 07:19:00;;;;;;;;;6.25;4.75;;;;;17.31;60.50;100900.75;5078145;27;65056;-75
2023/07/05 07:21:26;;;;;;;;;4.75;3.75;;;;;17.35;60.41;100895.22;5076208;27;45212;-73
2023/07/05 07:23:51;;;;;;;;;5.25;4.00;;;;;17.40;60.43;100910.84;5075437;27;45598;-73
2023/07/05 07:26:19;;;;;;;;;8.25;4.75;;;;;17.37;60.44;100903.06;5081386;27;45402;-72
2023/07/05 07:28:47;;;;;;;;;5.50;3.75;;;;;17.39;60.54;100903.88;5071090;28;45240;-74
2023/07/05 07:31:13;;;;;;;;;3.75;3.25;;;;;17.50;60.08;100913.88;5076884;28;45498;-72
2023/07/05 07:33:39;;;;;;;;;7.75;4.00;;;;;17.56;60.25;100917.03;5077291;27;47049;-72
2023/07/05 07:36:09;;;;;;;;;4.25;4.00;;;;;17.71;60.14;100915.38;5072034;27;45418;-73
2023/07/05 07:38:34;;;;;;;;;6.50;3.50;;;;;17.76;59.51;100912.44;5077817;28;45433;-73
2023/07/05 07:40:59;;;;;;;;;6.50;3.50;;;;;17.94;59.03;100926.53;5079429;27;61921;-73
2023/07/05 07:43:26;;;;;;;;;3.00;3.00;;;;;18.07;59.54;100930.19;5078036;27;65896;-72
2023/07/05 07:45:51;;;;;;;;;6.25;3.75;;;;;18.15;56.66;100930.66;5075251;28;45363;-73
2023/07/05 07:48:17;;;;;;;;;3.50;3.50;;;;;18.24;56.70;100941.66;5054299;28;69061;-75
2023/07/05 07:50:51;;;;;;;;;6.00;4.75;;;;;18.29;58.26;100942.25;5072059;28;45304;-73
2023/07/05 07:53:17;;;;;;;;;6.25;4.50;;;;;18.34;58.02;100937.53;5081346;27;45365;-73
2023/07/05 07:55:43;;;;;;;;;3.75;2.75;;;;;18.45;58.07;100945.75;5079539;27;45747;-73
2023/07/05 07:58:08;;;;;;;;;5.00;4.75;;;;;18.50;58.22;100942.84;5057676;27;45422;-75
2023/07/05 08:00:34;;;;;;;;;6.00;4.00;;;;;18.55;56.90;100935.47;5077381;28;45528;-73
2023/07/05 08:02:59;;;;;;;;;8.00;3.75;;;;;18.63;57.29;100945.63;5066145;28;46230;-71
2023/07/05 08:05:25;;;;;;;;;3.75;2.75;;;;;18.66;55.36;100942.81;5074408;28;45461;-72
2023/07/05 08:07:50;;;;;;;;;7.25;3.25;;;;;18.72;57.21;100942.47;5060384;28;45564;-72
2023/07/05 08:10:16;;;;;;;;;7.50;2.25;;;;;18.77;57.15;100945.72;5053870;28;45811;-72
2023/07/05 08:12:41;;;;;;;;;5.25;3.50;;;;;18.77;56.50;100935.94;5056849;27;48651;-72
2023/07/05 08:15:07;;;;;;;;;7.50;3.50;;;;;18.90;56.55;100935.28;5072173;28;45491;-72
2023/07/05 08:17:33;;;;;;;;;6.00;3.75;;;;;19.01;56.21;100924.88;5075536;27;45256;-72
2023/07/05 08:19:59;;;;;;;;;4.75;3.50;;;;;19.07;55.67;100926.28;5075760;27;46495;-74
2023/07/05 08:22:24;;;;;;;;;4.50;4.50;;;;;19.11;55.49;100926.03;5074940;27;70560;-75
2023/07/05 08:24:50;;;;;;;;;10.25;9.75;;;;;19.16;55.36;100926.63;5072182;27;45383;-75
2023/07/05 08:27:15;;;;;;;;;17.50;16.25;;;;;19.24;56.16;100922.66;5070289;28;45483;-75
2023/07/05 08:29:41;;;;;;;;;6.00;4.25;;;;;19.39;55.39;100931.47;5077896;28;45492;-75
2023/07/05 08:32:07;;;;;;;;;4.00;3.00;;;;;19.46;54.50;100935.44;5075375;28;46114;-75
2023/07/05 08:34:32;;;;;;;;;5.00;3.00;;;;;19.53;55.34;100945.63;5073305;28;45708;-74
2023/07/05 08:36:57;;;;;;;;;5.75;4.00;;;;;19.59;55.19;100943.53;5063597;28;51242;-74
2023/07/05 08:39:22;;;;;;;;;4.00;4.00;;;;;19.57;53.44;100956.06;5074535;28;70199;-74
2023/07/05 08:42:08;;;;;;;;;3.75;3.75;;;;;19.46;53.34;100952.25;5076072;28;62206;-72
2023/07/05 08:44:36;;;;;;;;;4.50;3.00;;;;;19.51;54.69;100959.91;5057736;28;45876;-74
2023/07/05 08:47:17;;;;;;;;;6.75;5.00;;;;;19.53;54.72;100955.41;5076078;28;45457;-74
2023/07/05 08:49:49;;;;;;;;;37.50;31.00;;;;;19.67;54.60;100967.78;5053698;28;46029;-75
2023/07/05 08:52:19;;;;;;;;;32.00;27.25;;;;;19.79;54.88;100964.41;5080710;27;48581;-75
2023/07/05 08:54:45;;;;;;;;;9.50;5.25;;;;;19.92;54.15;100973.34;5078388;27;45378;-75
2023/07/05 08:57:20;;;;;;;;;8.00;5.00;;;;;20.00;53.92;100972.00;5077764;28;45346;-72
2023/07/05 08:59:53;;;;;;;;;4.50;4.00;;;;;20.05;52.05;100980.53;5059773;28;45524;-74
2023/07/05 09:02:19;;;;;;;;;4.75;3.50;;;;;20.00;52.69;100975.50;5078233;28;48217;-73
2023/07/05 09:04:47;;;;;;;;;6.50;4.75;;;;;19.96;52.00;100979.31;5071949;27;45953;-74
2023/07/05 09:07:48;;;;;;;;;4.75;4.50;;;;;19.93;53.41;100976.84;5078143;28;45443;-73
2023/07/05 09:10:23;;;;;;;;;4.25;3.75;;;;;19.93;53.88;100971.53;5076870;28;45485;-72
2023/07/05 09:13:07;;;;;;;;;3.75;3.50;;;;;19.98;53.47;100973.91;5075119;28;46006;-73
2023/07/05 09:15:45;;;;;;;;;7.50;4.50;;;;;20.06;53.85;100975.13;5074971;27;45846;-73
2023/07/05 09:18:20;;;;;;;;;5.75;3.00;;;;;20.32;53.56;100972.59;5075196;28;45329;-72
2023/07/05 09:21:00;;;;;;;;;5.00;5.00;;;;;20.48;52.96;100975.13;5076264;27;45528;-74
2023/07/05 09:23:59;;;;;;;;;7.00;5.00;;;;;20.52;50.71;100975.78;5071281;28;47008;-74
2023/07/05 09:26:29;;;;;;;;;6.50;4.75;;;;;20.51;51.42;100972.28;5073870;28;45731;-74
2023/07/05 09:29:17;;;;;;;;;6.00;4.00;;;;;20.53;52.15;100964.22;5077034;27;45323;-74
2023/07/05 09:31:43;;;;;;;;;2.00;2.00;;;;;20.68;51.22;100965.88;5067970;28;45598;-73
2023/07/05 09:34:21;;;;;;;;;2.25;1.00;;;;;20.83;52.24;100967.53;5073032;28;46180;-73
2023/07/05 09:36:47;;;;;;;;;7.25;5.00;;;;;20.84;52.25;100965.72;5077907;27;45233;-74
2023/07/05 09:39:23;;;;;;;;;39.75;34.25;;;;;20.85;51.98;100967.44;5072540;28;45529;-74
2023/07/05 09:41:51;;;;;;;;;21.00;18.75;;;;;20.80;51.43;100967.72;5079419;27;45452;-71
2023/07/05 09:44:18;;;;;;;;;12.25;6.50;;;;;20.68;51.71;100963.22;5052563;28;46945;-74
2023/07/05 09:46:44;;;;;;;;;4.25;3.25;;;;;20.63;51.79;100976.00;5072443;28;45917;-73
2023/07/05 09:49:15;;;;;;;;;6.00;4.50;;;;;20.47;52.67;100973.44;5075137;28;45590;-73
2023/07/05 09:51:44;;;;;;;;;4.00;2.25;;;;;20.35;52.24;100968.91;5064645;27;45820;-73
2023/07/05 09:54:24;;;;;;;;;3.50;3.50;;;;;20.21;51.70;100981.28;5079856;27;46652;-75
2023/07/05 09:57:04;;;;;;;;;6.50;5.00;;;;;20.05;52.26;100984.03;5076746;27;45700;-73
2023/07/05 09:59:30;;;;;;;;;4.50;4.50;;;;;19.94;51.08;100981.22;5075415;28;45392;-75
2023/07/05 10:02:14;;;;;;;;;8.25;5.00;;;;;19.98;51.00;100990.69;5072275;27;45500;-74
2023/07/05 10:04:45;;;;;;;;;8.25;5.50;;;;;19.99;50.61;100981.78;5073869;27;45355;-73
2023/07/05 10:07:19;;;;;;;;;5.00;4.25;;;;;20.17;50.34;100987.75;5077093;28;45753;-73
2023/07/05 10:09:55;;;;;;;;;5.25;4.00;;;;;20.35;50.55;100988.38;5054947;28;46387;-74
2023/07/05 10:12:23;;;;;;;;;5.00;5.00;;;;;20.55;48.99;100991.53;5083211;27;45503;-74
2023/07/05 10:14:54;;;;;;;;;4.25;4.25;;;;;20.67;48.57;100985.47;5054253;28;47216;-75
2023/07/05 10:17:20;;;;;;;;;7.25;5.00;;;;;20.74;50.06;100988.56;5059454;27;45583;-75
2023/07/05 10:19:53;;;;;;;;;6.00;3.75;;;;;20.76;49.90;100998.16;5072700;28;45404;-73
2023/07/05 10:22:31;;;;;;;;;6.75;4.00;;;;;20.69;49.89;100990.69;5056817;28;45500;-73
2023/07/05 10:25:00;;;;;;;;;4.50;3.75;;;;;20.56;49.70;100994.09;5068262;28;46705;-74
2023/07/05 10:27:28;;;;;;;;;4.00;4.00;;;;;20.56;50.39;100998.59;5077766;27;45389;-74
2023/07/05 10:30:02;;;;;;;;;7.25;4.75;;;;;20.74;49.97;100993.91;5074862;28;45413;-74
2023/07/05 10:32:30;;;;;;;;;6.75;4.25;;;;;20.90;47.93;100991.09;5051375;28;45793;-75
2023/07/05 10:34:56;;;;;;;;;7.25;5.00;;;;;21.08;50.20;100992.50;5090032;27;47062;-74
2023/07/05 10:37:46;;;;;;;;;6.00;4.00;;;;;21.31;48.97;101000.75;5070883;28;45345;-74
2023/07/05 10:40:11;;;;;;;;;5.25;5.00;;;;;21.46;47.44;100990.88;5076301;28;46398;-73
2023/07/05 10:42:39;;;;;;;;;9.50;3.75;;;;;21.57;48.89;100993.66;5057755;28;57392;-72
2023/07/05 10:45:05;;;;;;;;;5.75;4.75;;;;;21.53;47.58;100981.50;5076242;27;45677;-71
2023/07/05 10:47:31;;;;;;;;;6.75;4.00;;;;;21.42;47.80;100984.88;5078315;27;45359;-70
2023/07/05 10:50:04;;;;;;;;;7.75;4.00;;;;;21.30;47.87;100997.25;5068626;27;45476;-70
2023/07/05 10:52:32;;;;;;;;;7.50;5.00;;;;;21.23;47.42;100998.63;5059688;28;45508;-70
2023/07/05 10:55:14;;;;;;;;;6.00;4.25;;;;;21.14;44.78;100991.22;5068529;28;46714;-74
2023/07/05 10:57:53;;;;;;;;;7.50;4.25;;;;;21.19;45.44;100999.75;5071383;27;46027;-74
2023/07/05 11:00:23;;;;;;;;;4.00;4.00;;;;;21.26;47.43;101000.19;5074380;28;45901;-73
2023/07/05 11:02:55;;;;;;;;;3.25;3.25;;;;;21.21;48.29;100989.84;5063354;28;45575;-73
2023/07/05 11:05:33;;;;;;;;;6.25;4.75;;;;;21.35;47.79;100986.25;5070126;28;46177;-73
2023/07/05 11:08:01;;;;;;;;;4.50;4.00;;;;;21.42;46.88;100993.75;5074535;28;45812;-75
2023/07/05 11:10:28;;;;;;;;;6.00;4.25;;;;;21.43;47.63;100990.09;5080140;27;45344;-73
2023/07/05 11:12:54;;;;;;;;;5.75;4.00;;;;;21.48;46.47;100988.97;5072153;27;45512;-76
2023/07/05 11:15:21;;;;;;;;;5.50;5.00;;;;;21.59;47.57;100984.59;5075570;27;47549;-75
2023/07/05 11:17:47;;;;;;;;;5.75;4.50;;;;;21.75;47.30;100984.38;5071665;27;46477;-77
2023/07/05 11:20:35;;;;;;;;;6.75;4.25;;;;;21.78;45.91;100989.50;5079100;28;45399;-78
2023/07/05 11:23:00;;;;;;;;;4.75;4.00;;;;;21.70;44.17;100981.19;5078713;28;45588;-75
2023/07/05 11:25:54;;;;;;;;;4.00;3.00;;;;;21.76;46.92;100985.22;5080720;27;65744;-76
2023/07/05 11:28:39;;;;;;;;;3.25;3.25;;;;;21.83;46.57;100975.00;5077934;27;45284;-78
2023/07/05 11:31:07;;;;;;;;;3.00;3.00;;;;;21.96;46.01;100971.34;5076494;28;45364;-76